createdAt,value
2023-05-09T00:00:47.135Z,127.73
2023-05-09T00:03:15.282Z,130.00
2023-05-09T00:05:44.718Z,127.50
2023-05-09T00:08:12.671Z,126.40
2023-05-09T00:10:40.672Z,125.97
2023-05-09T00:13:09.038Z,125.43
2023-05-09T00:15:37.009Z,126.53
2023-05-09T00:18:05.327Z,125.33
2023-05-09T00:20:33.977Z,125.70
2023-05-09T00:23:04.516Z,121.80
2023-05-09T00:25:32.446Z,123.07
2023-05-09T00:28:00.467Z,122.87
2023-05-09T00:30:28.416Z,121.23
2023-05-09T00:32:56.437Z,120.97
2023-05-09T00:35:24.624Z,122.30
2023-05-09T00:37:52.609Z,117.70
2023-05-09T00:40:22.011Z,119.03
2023-05-09T00:42:50.008Z,116.47
2023-05-09T00:45:17.948Z,119.37
2023-05-09T00:47:45.964Z,120.40
2023-05-09T00:50:14.866Z,119.90
2023-05-09T00:52:42.967Z,116.73
2023-05-09T00:55:12.541Z,117.90
2023-05-09T00:57:42.059Z,115.60
2023-05-09T01:00:13.239Z,116.90
2023-05-09T01:02:42.339Z,117.10
2023-05-09T01:05:11.120Z,113.63
2023-05-09T01:07:44.615Z,117.27
2023-05-09T01:10:22.064Z,114.43
2023-05-09T01:13:00.648Z,112.30
2023-05-09T01:15:32.943Z,112.17
2023-05-09T01:18:06.421Z,112.30
2023-05-09T01:20:38.227Z,114.43
2023-05-09T01:23:21.824Z,110.53
2023-05-09T01:26:02.739Z,111.20
2023-05-09T01:28:45.671Z,112.53
2023-05-09T01:31:16.524Z,111.00
2023-05-09T01:33:47.998Z,110.33
2023-05-09T01:36:18.414Z,110.13
2023-05-09T01:38:48.044Z,112.80
2023-05-09T01:41:17.845Z,110.07
2023-05-09T01:43:48.668Z,110.90
2023-05-09T01:46:19.213Z,105.37
2023-05-09T01:48:47.595Z,107.07
2023-05-09T01:51:16.404Z,105.67
2023-05-09T01:53:45.645Z,107.03
2023-05-09T01:56:14.387Z,106.07
2023-05-09T01:58:43.409Z,103.93
2023-05-09T02:01:14.485Z,104.57
2023-05-09T02:03:46.247Z,110.43
2023-05-09T02:06:15.511Z,105.07
2023-05-09T02:08:44.638Z,104.57
2023-05-09T02:11:12.603Z,104.40
2023-05-09T02:13:40.871Z,103.37
2023-05-09T02:16:10.311Z,103.27
2023-05-09T02:18:38.369Z,106.43
2023-05-09T02:21:07.981Z,102.43
2023-05-09T02:23:36.236Z,103.17
2023-05-09T02:26:04.578Z,103.50
2023-05-09T02:28:33.437Z,101.60
2023-05-09T02:31:03.370Z,103.23
2023-05-09T02:33:32.260Z,101.93
2023-05-09T02:36:00.859Z,101.67
2023-05-09T02:38:30.311Z,102.30
2023-05-09T02:40:58.297Z,101.50
2023-05-09T02:43:26.355Z,105.73
2023-05-09T02:45:54.373Z,101.33
2023-05-09T02:48:22.372Z,100.30
2023-05-09T02:50:50.453Z,103.13
2023-05-09T02:53:18.407Z,101.63
2023-05-09T02:55:47.982Z,100.13
2023-05-09T02:58:15.945Z,104.13
2023-05-09T03:00:44.429Z,104.83
2023-05-09T03:03:12.820Z,102.40
2023-05-09T03:05:40.940Z,100.27
2023-05-09T03:08:09.139Z,103.37
2023-05-09T03:10:37.108Z,101.27
2023-05-09T03:13:06.461Z,100.27
2023-05-09T03:15:34.430Z,100.50
2023-05-09T03:18:02.424Z,98.87
2023-05-09T03:20:30.419Z,98.43
2023-05-09T03:22:58.375Z,101.13
2023-05-09T03:25:27.203Z,101.97
2023-05-09T03:27:55.184Z,97.60
2023-05-09T03:30:26.230Z,102.57
2023-05-09T03:32:54.270Z,100.23
2023-05-09T03:35:22.496Z,102.73
2023-05-09T03:37:50.438Z,100.67
2023-05-09T03:40:18.535Z,101.07
2023-05-09T03:42:46.464Z,102.37
2023-05-09T03:45:14.687Z,99.63
2023-05-09T03:47:44.247Z,103.57
2023-05-09T03:50:12.328Z,100.90
2023-05-09T03:52:40.284Z,101.57
2023-05-09T03:55:09.237Z,100.97
2023-05-09T03:57:37.338Z,103.80
2023-05-09T04:00:08.555Z,101.87
2023-05-09T04:02:36.677Z,102.77
2023-05-09T04:05:06.555Z,102.73
2023-05-09T04:07:34.563Z,100.80
2023-05-09T04:10:02.555Z,102.47
2023-05-09T04:12:30.521Z,105.90
2023-05-09T04:14:58.547Z,104.73
2023-05-09T04:17:26.972Z,104.40
2023-05-09T04:19:54.977Z,102.20
2023-05-09T04:22:24.433Z,103.43
2023-05-09T04:24:52.330Z,106.97
2023-05-09T04:27:20.525Z,105.83
2023-05-09T04:29:49.787Z,104.57
2023-05-09T04:32:17.791Z,105.57
2023-05-09T04:34:45.965Z,104.87
2023-05-09T04:37:14.290Z,110.60
2023-05-09T04:39:43.786Z,104.30
2023-05-09T04:42:11.800Z,106.53
2023-05-09T04:44:39.771Z,105.77
2023-05-09T04:47:07.785Z,105.17
2023-05-09T04:49:35.759Z,105.73
2023-05-09T04:52:03.750Z,104.93
2023-05-09T04:54:31.802Z,108.50
2023-05-09T04:57:13.583Z,110.67
2023-05-09T04:59:44.901Z,104.10
2023-05-09T05:02:13.394Z,108.17
2023-05-09T05:04:41.432Z,107.77
2023-05-09T05:07:10.090Z,109.73
2023-05-09T05:09:38.080Z,109.53
2023-05-09T05:12:09.779Z,108.30
2023-05-09T05:14:38.186Z,110.30
2023-05-09T05:17:06.303Z,106.60
2023-05-09T05:19:34.326Z,111.13
2023-05-09T05:22:02.606Z,108.10
2023-05-09T05:24:30.625Z,111.17
2023-05-09T05:26:58.628Z,111.87
2023-05-09T05:29:27.924Z,109.20
2023-05-09T05:31:56.010Z,110.33
2023-05-09T05:34:24.082Z,111.93
2023-05-09T05:36:52.113Z,115.73
2023-05-09T05:39:20.074Z,113.30
2023-05-09T05:41:48.006Z,115.87
2023-05-09T05:44:15.973Z,115.63
2023-05-09T05:46:45.322Z,112.40
2023-05-09T05:49:13.339Z,116.03
2023-05-09T05:51:41.334Z,115.97
2023-05-09T05:54:09.260Z,113.10
2023-05-09T05:56:37.172Z,115.07
2023-05-09T05:59:05.402Z,118.30
2023-05-09T06:01:33.372Z,122.93
2023-05-09T06:04:02.808Z,123.27
2023-05-09T06:06:31.113Z,125.33
2023-05-09T06:08:59.119Z,123.80
2023-05-09T06:11:27.174Z,121.10
2023-05-09T06:13:55.191Z,124.77
2023-05-09T06:16:23.444Z,127.93
2023-05-09T06:18:53.358Z,131.43
2023-05-09T06:21:24.371Z,127.60
2023-05-09T06:24:06.682Z,125.27
2023-05-09T06:26:36.379Z,131.37
2023-05-09T06:29:04.459Z,129.20
2023-05-09T06:31:33.059Z,127.43
2023-05-09T06:34:01.190Z,143.20
2023-05-09T06:36:30.563Z,132.70
2023-05-09T06:38:58.592Z,133.43
2023-05-09T06:41:26.731Z,132.73
2023-05-09T06:43:54.738Z,129.83
2023-05-09T06:46:22.826Z,129.47
2023-05-09T06:48:50.949Z,133.13
2023-05-09T06:51:18.962Z,131.57
2023-05-09T06:53:48.291Z,139.10
2023-05-09T06:56:18.379Z,132.70
2023-05-09T06:58:47.980Z,134.90
2023-05-09T07:01:16.097Z,137.37
2023-05-09T07:03:44.166Z,139.63
2023-05-09T07:06:12.181Z,139.13
2023-05-09T07:08:40.225Z,137.73
2023-05-09T07:11:09.596Z,145.17
2023-05-09T07:13:37.581Z,137.77
2023-05-09T07:16:06.129Z,145.00
2023-05-09T07:18:34.194Z,145.17
2023-05-09T07:21:02.792Z,144.17
2023-05-09T07:23:30.896Z,144.33
2023-05-09T07:25:59.511Z,145.37
2023-05-09T07:28:28.914Z,150.70
2023-05-09T07:30:57.329Z,147.83
2023-05-09T07:33:25.334Z,147.90
2023-05-09T07:35:54.066Z,147.00
2023-05-09T07:38:22.608Z,146.23
2023-05-09T07:40:50.663Z,150.80
2023-05-09T07:43:18.632Z,152.23
2023-05-09T07:45:48.278Z,148.57
2023-05-09T07:48:16.415Z,153.60
2023-05-09T07:50:44.779Z,159.03
2023-05-09T07:53:12.757Z,156.07
2023-05-09T07:55:40.719Z,158.37
2023-05-09T07:58:08.689Z,157.80
2023-05-09T08:00:36.687Z,162.90
2023-05-09T08:03:06.381Z,162.03
2023-05-09T08:05:34.419Z,161.83
2023-05-09T08:08:02.455Z,164.53
2023-05-09T08:10:32.211Z,159.87
2023-05-09T08:13:00.249Z,158.80
2023-05-09T08:15:28.261Z,165.50
2023-05-09T08:17:56.322Z,165.00
2023-05-09T08:20:25.653Z,166.27
2023-05-09T08:22:53.661Z,173.23
2023-05-09T08:25:21.797Z,169.10
2023-05-09T08:27:50.527Z,172.93
2023-05-09T08:30:20.545Z,166.47
2023-05-09T08:32:48.609Z,172.40
2023-05-09T08:35:17.026Z,171.73
2023-05-09T08:37:47.879Z,174.30
2023-05-09T08:40:17.178Z,169.20
2023-05-09T08:42:46.714Z,171.93
2023-05-09T08:45:15.909Z,174.97
2023-05-09T08:47:45.316Z,179.40
2023-05-09T08:50:15.593Z,176.53
2023-05-09T08:52:44.012Z,178.23
2023-05-09T08:55:13.694Z,185.33
2023-05-09T08:57:42.300Z,186.53
2023-05-09T09:00:14.106Z,191.40
2023-05-09T09:02:43.186Z,192.63
2023-05-09T09:05:34.227Z,192.73
2023-05-09T09:08:03.517Z,194.77
2023-05-09T09:10:34.233Z,191.80
2023-05-09T09:13:04.980Z,194.47
2023-05-09T09:15:37.955Z,195.53
2023-05-09T09:18:09.761Z,208.23
2023-05-09T09:20:42.860Z,205.00
2023-05-09T09:23:11.588Z,209.47
2023-05-09T09:25:40.918Z,210.80
2023-05-09T09:28:08.950Z,222.07
2023-05-09T09:30:36.970Z,204.47
2023-05-09T09:33:08.077Z,207.13
2023-05-09T09:35:40.581Z,203.07
2023-05-09T09:38:08.577Z,213.50
2023-05-09T09:40:39.273Z,205.47
2023-05-09T09:43:09.103Z,215.50
2023-05-09T09:45:38.271Z,215.70
2023-05-09T09:48:08.264Z,219.23
2023-05-09T09:50:36.278Z,217.30
2023-05-09T09:53:04.267Z,218.43
2023-05-09T09:55:33.101Z,220.53
2023-05-09T09:58:01.123Z,228.43
2023-05-09T10:00:32.160Z,225.47
2023-05-09T10:03:00.989Z,229.43
2023-05-09T10:05:30.776Z,235.40
2023-05-09T10:08:00.529Z,228.80
2023-05-09T10:10:29.915Z,238.17
2023-05-09T10:12:59.404Z,236.93
2023-05-09T10:15:35.566Z,241.07
2023-05-09T10:18:14.590Z,238.10
2023-05-09T10:20:44.907Z,240.40
2023-05-09T10:23:17.217Z,248.30
2023-05-09T10:25:48.516Z,249.90
2023-05-09T10:28:19.799Z,251.33
2023-05-09T10:30:55.774Z,254.07
2023-05-09T10:33:31.847Z,254.17
2023-05-09T10:36:01.843Z,255.17
2023-05-09T10:38:31.371Z,261.07
2023-05-09T10:41:00.424Z,263.03
2023-05-09T10:43:28.753Z,261.77
2023-05-09T10:45:57.143Z,268.33
2023-05-09T10:48:27.154Z,261.63
2023-05-09T10:50:55.822Z,268.27
2023-05-09T10:53:24.801Z,276.67
2023-05-09T10:55:55.569Z,269.70
2023-05-09T10:58:27.251Z,276.40
2023-05-09T11:00:57.231Z,279.33
2023-05-09T11:03:28.227Z,281.50
2023-05-09T11:05:58.413Z,273.60
2023-05-09T11:08:27.684Z,286.17
2023-05-09T11:10:57.258Z,281.05
2023-05-09T11:13:27.355Z,289.23
2023-05-09T11:16:12.442Z,296.55
2023-05-09T11:18:54.636Z,286.87
2023-05-09T11:21:22.957Z,283.60
2023-05-09T11:23:54.509Z,288.92
2023-05-09T11:26:24.587Z,292.58
2023-05-09T11:28:56.758Z,292.15
2023-05-09T11:31:24.876Z,291.08
2023-05-09T11:34:04.766Z,296.00
2023-05-09T11:36:33.791Z,295.63
2023-05-09T11:39:07.253Z,291.10
2023-05-09T11:41:43.565Z,292.83
2023-05-09T11:44:16.450Z,292.07
2023-05-09T11:46:44.545Z,301.88
2023-05-09T11:49:14.166Z,305.10
2023-05-09T11:51:42.640Z,311.85
2023-05-09T11:54:11.970Z,307.63
2023-05-09T11:56:42.242Z,313.50
2023-05-09T11:59:13.147Z,342.40
2023-05-09T12:01:41.325Z,313.88
2023-05-09T12:04:09.540Z,323.13
2023-05-09T12:06:39.051Z,319.03
2023-05-09T12:09:09.051Z,329.48
2023-05-09T12:11:37.296Z,310.45
2023-05-09T12:14:05.363Z,323.50
2023-05-09T12:16:33.430Z,330.17
2023-05-09T12:19:01.798Z,328.08
2023-05-09T12:21:29.922Z,333.10
2023-05-09T12:23:59.498Z,341.25
2023-05-09T12:26:27.809Z,339.80
2023-05-09T12:28:55.793Z,338.63
2023-05-09T12:31:24.162Z,337.15
2023-05-09T12:33:52.311Z,340.88
2023-05-09T12:36:20.405Z,341.85
2023-05-09T12:38:55.054Z,332.05
2023-05-09T12:43:56.058Z,349.10
2023-05-09T12:46:24.404Z,352.00
2023-05-09T12:48:52.549Z,358.75
2023-05-09T12:51:21.611Z,354.45
2023-05-09T12:53:50.143Z,357.23
2023-05-09T12:56:19.236Z,363.45
2023-05-09T12:58:52.730Z,361.55
2023-05-09T13:01:21.302Z,361.63
2023-05-09T13:03:53.397Z,364.33
2023-05-09T13:06:21.651Z,362.63
2023-05-09T13:08:59.913Z,367.00
2023-05-09T13:11:28.700Z,366.35
2023-05-09T13:13:58.780Z,375.27
2023-05-09T13:16:26.947Z,379.85
2023-05-09T13:18:54.972Z,383.23
2023-05-09T13:21:22.927Z,387.08
2023-05-09T13:23:51.258Z,384.77
2023-05-09T13:26:19.521Z,390.27
2023-05-09T13:28:47.588Z,387.40
2023-05-09T13:31:17.143Z,394.55
2023-05-09T13:33:45.226Z,394.33
2023-05-09T13:36:13.248Z,398.55
2023-05-09T13:38:42.034Z,395.17
2023-05-09T13:41:10.667Z,397.08
2023-05-09T13:43:40.045Z,401.33
2023-05-09T13:46:08.284Z,400.52
2023-05-09T13:48:37.703Z,396.75
2023-05-09T13:51:07.509Z,409.35
2023-05-09T13:53:38.118Z,409.63
2023-05-09T13:56:09.247Z,413.80
2023-05-09T13:58:37.492Z,418.23
2023-05-09T14:01:05.565Z,411.02
2023-05-09T14:03:33.586Z,417.23
2023-05-09T14:06:03.634Z,416.63
2023-05-09T14:08:31.908Z,423.63
2023-05-09T14:11:00.037Z,430.00
2023-05-09T14:13:28.129Z,430.77
2023-05-09T14:15:56.348Z,430.45
2023-05-09T14:18:24.478Z,426.77
2023-05-09T14:20:52.632Z,434.30
2023-05-09T14:23:22.303Z,437.67
2023-05-09T14:25:50.361Z,433.88
2023-05-09T14:28:18.345Z,424.27
2023-05-09T14:30:46.349Z,442.25
2023-05-09T14:33:14.532Z,426.38
2023-05-09T14:35:42.746Z,428.40
2023-05-09T14:38:12.438Z,440.75
2023-05-09T14:40:42.885Z,440.70
2023-05-09T14:43:11.326Z,447.52
2023-05-09T14:45:39.391Z,443.58
2023-05-09T14:48:07.663Z,449.83
2023-05-09T14:50:35.667Z,451.95
2023-05-09T14:53:03.847Z,459.60
2023-05-09T14:55:32.445Z,452.52
2023-05-09T14:58:02.604Z,450.60
2023-05-09T15:00:30.860Z,456.40
2023-05-09T15:02:58.946Z,460.20
2023-05-09T15:05:27.015Z,457.00
2023-05-09T15:07:55.093Z,458.83
2023-05-09T15:10:23.399Z,477.00
2023-05-09T15:12:51.476Z,468.83
2023-05-09T15:15:24.232Z,475.10
2023-05-09T15:17:53.175Z,495.95
2023-05-09T15:20:21.503Z,512.80
2023-05-09T15:22:50.644Z,533.35
2023-05-09T15:25:19.685Z,538.90
2023-05-09T15:27:50.324Z,564.28
2023-05-09T15:30:18.554Z,576.17
2023-05-09T15:32:48.033Z,587.83
2023-05-09T15:35:18.184Z,603.28
2023-05-09T15:37:46.506Z,617.33
2023-05-09T15:40:14.761Z,628.05
2023-05-09T15:42:43.311Z,637.58
2023-05-09T15:45:11.575Z,638.17
2023-05-09T15:47:39.556Z,640.50
2023-05-09T15:50:10.054Z,661.88
2023-05-09T15:52:38.086Z,663.72
2023-05-09T15:55:07.165Z,671.28
2023-05-09T15:57:35.248Z,691.03
2023-05-09T16:00:05.487Z,702.85
2023-05-09T16:02:33.606Z,714.70
2023-05-09T16:05:01.713Z,726.25
2023-05-09T16:07:33.389Z,735.25
2023-05-09T16:10:03.547Z,741.17
2023-05-09T16:12:32.906Z,749.83
2023-05-09T16:15:01.681Z,751.72
2023-05-09T16:17:31.484Z,753.65
2023-05-09T16:20:01.468Z,761.50
2023-05-09T16:22:32.548Z,758.45
2023-05-09T16:25:01.936Z,762.38
2023-05-09T16:27:34.212Z,760.65
2023-05-09T16:30:03.706Z,764.75
2023-05-09T16:32:33.211Z,767.70
2023-05-09T16:35:02.955Z,781.08
2023-05-09T16:37:35.409Z,782.85
2023-05-09T16:40:05.388Z,783.25
2023-05-09T16:42:34.534Z,779.20
2023-05-09T16:45:03.692Z,789.72
2023-05-09T16:47:32.852Z,789.20
2023-05-09T16:50:02.047Z,792.47
2023-05-09T16:52:32.774Z,787.20
2023-05-09T16:55:01.753Z,796.13
2023-05-09T16:57:30.948Z,792.92
2023-05-09T17:00:00.093Z,794.00
2023-05-09T17:02:29.425Z,798.67
2023-05-09T17:04:58.818Z,787.08
2023-05-09T17:07:28.280Z,778.72
2023-05-09T17:09:58.692Z,779.60
2023-05-09T17:12:27.893Z,770.17
2023-05-09T17:14:57.115Z,769.15
2023-05-09T17:17:26.254Z,776.00
2023-05-09T17:19:55.719Z,770.75
2023-05-09T17:22:24.974Z,765.30
2023-05-09T17:24:54.309Z,770.95
2023-05-09T17:27:25.278Z,773.25
2023-05-09T17:29:54.455Z,770.15
2023-05-09T17:32:23.776Z,766.03
2023-05-09T17:34:53.763Z,765.42
2023-05-09T17:37:23.074Z,761.50
2023-05-09T17:39:53.134Z,753.13
2023-05-09T17:42:24.179Z,724.25
2023-05-09T17:44:53.499Z,700.40
2023-05-09T17:47:23.547Z,683.83
2023-05-09T17:49:52.755Z,656.75
2023-05-09T17:52:21.840Z,645.85
2023-05-09T17:54:51.017Z,628.80
2023-05-09T17:57:19.077Z,604.17
2023-05-09T17:59:48.438Z,585.20
2023-05-09T18:02:16.730Z,583.13
2023-05-09T18:04:46.299Z,573.90
2023-05-09T18:07:14.340Z,572.25
2023-05-09T18:09:42.613Z,568.72
2023-05-09T18:12:10.731Z,536.38
2023-05-09T18:14:40.056Z,528.17
2023-05-09T18:17:09.553Z,511.75
2023-05-09T18:19:37.796Z,511.45
2023-05-09T18:22:05.826Z,489.02
2023-05-09T18:24:33.871Z,474.25
2023-05-09T18:27:03.051Z,462.33
2023-05-09T18:29:31.596Z,449.63
2023-05-09T18:31:59.607Z,450.30
2023-05-09T18:34:28.979Z,434.35
2023-05-09T18:36:57.210Z,429.23
2023-05-09T18:39:25.706Z,429.30
2023-05-09T18:41:54.330Z,414.38
2023-05-09T18:44:22.310Z,401.98
2023-05-09T18:46:50.395Z,398.97
2023-05-09T18:49:18.656Z,399.00
2023-05-09T18:51:48.359Z,397.37
2023-05-09T18:54:16.328Z,388.70
2023-05-09T18:56:44.332Z,388.95
2023-05-09T18:59:13.682Z,376.67
2023-05-09T19:01:42.688Z,370.33
2023-05-09T19:04:10.862Z,365.57
2023-05-09T19:06:39.008Z,361.50
2023-05-09T19:09:08.517Z,361.97
2023-05-09T19:11:36.670Z,356.00
2023-05-09T19:14:05.133Z,350.10
2023-05-09T19:16:33.290Z,339.65
2023-05-09T19:19:02.573Z,340.30
2023-05-09T19:21:30.497Z,340.63
2023-05-09T19:23:58.459Z,344.60
2023-05-09T19:26:27.786Z,336.60
2023-05-09T19:28:55.762Z,325.27
2023-05-09T19:31:25.485Z,321.30
2023-05-09T19:33:53.647Z,316.40
2023-05-09T19:36:21.633Z,318.17
2023-05-09T19:38:49.602Z,315.13
2023-05-09T19:41:17.596Z,314.37
2023-05-09T19:43:48.657Z,309.43
2023-05-09T19:46:19.009Z,310.00
2023-05-09T19:48:46.956Z,306.20
2023-05-09T19:51:15.486Z,298.77
2023-05-09T19:53:43.478Z,299.30
2023-05-09T19:56:12.619Z,293.03
2023-05-09T19:58:40.655Z,288.53
2023-05-09T20:01:10.018Z,292.03
2023-05-09T20:03:40.704Z,284.37
2023-05-09T20:06:09.010Z,288.70
2023-05-09T20:08:36.962Z,282.93
2023-05-09T20:11:05.001Z,285.43
2023-05-09T20:13:32.959Z,285.20
2023-05-09T20:16:02.719Z,280.97
2023-05-09T20:18:33.437Z,275.93
2023-05-09T20:21:01.507Z,276.43
2023-05-09T20:23:29.930Z,276.97
2023-05-09T20:25:57.947Z,279.90
2023-05-09T20:28:25.991Z,276.50
2023-05-09T20:30:54.378Z,273.97
2023-05-09T20:33:22.591Z,267.97
2023-05-09T20:35:51.928Z,269.40
2023-05-09T20:38:19.899Z,268.83
2023-05-09T20:40:47.933Z,263.30
2023-05-09T20:43:15.962Z,263.33
2023-05-09T20:45:44.001Z,263.87
2023-05-09T20:48:12.378Z,261.13
2023-05-09T20:50:40.337Z,256.70
2023-05-09T20:53:09.764Z,255.60
2023-05-09T20:55:37.979Z,260.60
2023-05-09T20:58:05.972Z,253.17
2023-05-09T21:00:34.211Z,254.67
2023-05-09T21:03:02.460Z,250.43
2023-05-09T21:05:30.521Z,259.67
2023-05-09T21:07:58.514Z,249.43
2023-05-09T21:10:27.850Z,245.63
2023-05-09T21:12:55.873Z,248.90
2023-05-09T21:15:23.893Z,241.40
2023-05-09T21:17:51.893Z,244.37
2023-05-09T21:20:20.047Z,244.33
2023-05-09T21:22:48.057Z,241.00
2023-05-09T21:25:17.313Z,236.73
2023-05-09T21:27:46.736Z,240.10
2023-05-09T21:30:15.689Z,234.63
2023-05-09T21:32:43.840Z,238.07
2023-05-09T21:35:13.152Z,239.90
2023-05-09T21:37:41.159Z,238.70
2023-05-09T21:40:10.577Z,234.73
2023-05-09T21:42:40.183Z,233.00
2023-05-09T21:45:10.604Z,234.37
2023-05-09T21:47:39.625Z,230.40
2023-05-09T21:50:08.781Z,231.37
2023-05-09T21:52:36.753Z,232.90
2023-05-09T21:55:05.116Z,225.10
2023-05-09T21:57:33.086Z,225.60
2023-05-09T22:00:01.936Z,219.40
2023-05-09T22:02:31.431Z,223.73
2023-05-09T22:04:59.458Z,227.53
2023-05-09T22:07:27.401Z,220.87
2023-05-09T22:09:55.387Z,223.70
2023-05-09T22:12:23.376Z,220.50
2023-05-09T22:14:56.411Z,222.43
2023-05-09T22:17:25.105Z,221.10
2023-05-09T22:19:54.482Z,221.73
2023-05-09T22:22:22.539Z,218.13
2023-05-09T22:24:50.550Z,217.60
2023-05-09T22:27:18.515Z,210.63
2023-05-09T22:29:47.062Z,214.50
2023-05-09T22:32:15.547Z,214.13
2023-05-09T22:34:43.490Z,214.17
2023-05-09T22:37:12.845Z,213.93
2023-05-09T22:39:40.858Z,211.23
2023-05-09T22:42:11.226Z,212.27
2023-05-09T22:44:39.484Z,209.13
2023-05-09T22:47:08.639Z,202.83
2023-05-09T22:49:36.582Z,206.95
2023-05-09T22:52:04.772Z,205.00
2023-05-09T22:54:34.122Z,207.70
2023-05-09T22:57:02.108Z,200.23
2023-05-09T22:59:30.116Z,199.73
2023-05-09T23:01:58.538Z,201.93
2023-05-09T23:04:26.538Z,199.00
2023-05-09T23:06:54.481Z,202.20
2023-05-09T23:09:22.537Z,196.43
2023-05-09T23:11:51.825Z,193.30
2023-05-09T23:14:19.886Z,191.03
2023-05-09T23:16:48.784Z,193.37
2023-05-09T23:19:16.765Z,190.30
2023-05-09T23:21:44.803Z,184.87
2023-05-09T23:24:12.768Z,187.67
2023-05-09T23:26:40.707Z,184.73
2023-05-09T23:29:10.040Z,189.60
2023-05-09T23:31:38.103Z,183.60
2023-05-09T23:34:06.082Z,190.60
2023-05-09T23:36:34.015Z,193.17
2023-05-09T23:39:01.985Z,190.13
2023-05-09T23:41:29.948Z,184.30
2023-05-09T23:43:58.258Z,184.77
2023-05-09T23:46:27.613Z,186.40
2023-05-09T23:48:55.633Z,179.30
2023-05-09T23:51:23.588Z,170.90
2023-05-09T23:53:51.567Z,176.33
2023-05-09T23:56:19.579Z,171.03
2023-05-09T23:58:47.624Z,176.20
